Time;durP1;ratioP1;P1;durP2;ratioP2;P2;SDS_P1;SDS_P2;PMS_P1;PMS_P2;Temp;Humidity;BMP_temperature;BMP_pressure;BME280_temperature;BME280_humidity;BME280_pressure;Samples;Min_cycle;Max_cycle;Signal;HPM_P1;HPM_P2
2021/12/21 00:00:15;;;;;;;92.97;86.38;;;;;;;-1.29;100.00;101138.53;4989013;28;20117;-82
2021/12/21 00:02:44;;;;;;;92.28;85.80;;;;;;;-1.11;100.00;101144.91;4985215;28;20066;-80
2021/12/21 00:05:17;;;;;;;87.07;80.80;;;;;;;-1.04;100.00;101150.47;4991611;28;20112;-80
2021/12/21 00:07:44;;;;;;;93.25;86.47;;;;;;;-1.25;100.00;101148.56;4990831;28;20039;-79
2021/12/21 00:10:12;;;;;;;98.70;92.00;;;;;;;-1.25;100.00;101145.16;4991385;28;20046;-80
2021/12/21 00:12:50;;;;;;;87.43;81.35;;;;;;;-1.26;100.00;101146.09;4988633;28;20156;-81
2021/12/21 00:15:23;;;;;;;89.95;83.85;;;;;;;-0.46;100.00;101154.47;4991669;28;20072;-78
2021/12/21 00:17:55;;;;;;;94.95;88.85;;;;;;;-1.17;100.00;101156.63;4990191;28;20523;-80
2021/12/21 00:20:44;;;;;;;96.80;90.13;;;;;;;-0.42;100.00;101162.94;4992201;28;20069;-79
2021/12/21 00:23:29;;;;;;;83.15;77.88;;;;;;;-1.28;100.00;101156.63;4990483;28;20141;-79
2021/12/21 00:25:56;;;;;;;90.57;84.80;;;;;;;-0.80;100.00;101168.56;4991926;28;20058;-79
2021/12/21 00:28:25;;;;;;;81.63;76.28;;;;;;;-1.11;100.00;101170.16;4991559;28;20411;-80
2021/12/21 00:30:52;;;;;;;89.35;83.78;;;;;;;0.00;100.00;101176.06;4991693;28;20046;-79
2021/12/21 00:33:19;;;;;;;76.93;71.63;;;;;;;-0.46;100.00;101179.75;4992689;28;20105;-79
2021/12/21 00:35:46;;;;;;;79.00;73.25;;;;;;;-1.05;100.00;101178.31;4991319;28;20419;-79
2021/12/21 00:38:13;;;;;;;84.93;79.57;;;;;;;0.13;100.00;101189.75;4991409;28;20124;-80
2021/12/21 00:40:40;;;;;;;79.93;74.18;;;;;;;0.01;100.00;101184.72;4991496;28;20053;-80
2021/12/21 00:43:07;;;;;;;79.32;73.80;;;;;;;-1.08;100.00;101189.00;4991513;28;20458;-80
2021/12/21 00:45:35;;;;;;;80.10;74.80;;;;;;;-1.29;100.00;101190.66;4991095;28;20105;-79
2021/12/21 00:48:02;;;;;;;80.75;75.35;;;;;;;-1.39;100.00;101200.94;4990537;28;20450;-80
2021/12/21 00:50:29;;;;;;;83.13;77.30;;;;;;;-1.46;100.00;101190.13;4991203;28;20049;-80
2021/12/21 00:52:56;;;;;;;95.80;89.18;;;;;;;-1.14;100.00;101192.06;4991022;28;20050;-80
2021/12/21 00:55:23;;;;;;;88.45;82.70;;;;;;;-0.79;100.00;101194.53;4991195;28;20129;-80
2021/12/21 00:57:51;;;;;;;87.45;81.35;;;;;;;-0.28;100.00;101190.50;4991261;28;20046;-80
2021/12/21 01:00:21;;;;;;;81.82;76.30;;;;;;;-0.96;100.00;101185.44;4991097;28;20046;-80
2021/12/21 01:02:50;;;;;;;80.90;75.57;;;;;;;-0.79;100.00;101194.53;4988683;28;20081;-80
2021/12/21 01:05:24;;;;;;;84.38;78.80;;;;;;;-1.09;100.00;101192.56;4991844;28;20054;-80
2021/12/21 01:07:53;;;;;;;87.03;81.95;;;;;;;0.65;100.00;101202.88;4990949;28;20050;-80
2021/12/21 01:13:14;;;;;;;75.97;70.65;;;;;;;-1.14;100.00;101191.25;4991153;28;20054;-79
2021/12/21 01:15:59;;;;;;;85.80;79.97;;;;;;;-0.82;100.00;101192.16;4989371;28;20053;-80
2021/12/21 01:18:34;;;;;;;91.32;85.20;;;;;;;-0.43;100.00;101189.97;4990555;28;20072;-80
2021/12/21 01:21:09;;;;;;;78.15;72.93;;;;;;;-0.50;100.00;101196.63;4990492;28;20480;-81
2021/12/21 01:26:26;;;;;;;91.00;85.07;;;;;;;-0.21;100.00;101196.06;4983580;28;20044;-79
2021/12/21 01:29:01;;;;;;;87.93;82.32;;;;;;;-0.65;100.00;101197.84;4990560;28;20483;-79
2021/12/21 01:31:36;;;;;;;82.53;76.53;;;;;;;-1.22;100.00;101195.25;4990470;28;20151;-80
2021/12/21 01:34:19;;;;;;;82.00;76.30;;;;;;;-1.19;100.00;101195.03;4990710;28;20050;-80
2021/12/21 01:36:51;;;;;;;88.20;82.20;;;;;;;-1.14;100.00;101191.25;4990521;28;20137;-81
2021/12/21 01:39:46;;;;;;;94.30;87.70;;;;;;;-1.34;100.00;101193.59;4990444;28;20058;-80
2021/12/21 01:42:15;;;;;;;88.40;82.40;;;;;;;-1.53;100.00;101190.72;4991055;28;20050;-81
2021/12/21 01:49:34;;;;;;;84.43;78.75;;;;;;;-1.67;100.00;101191.75;4989344;28;20062;-80
2021/12/21 01:50:17;;;;;;;94.78;88.35;;;;;;;-1.35;100.00;101189.34;4990790;28;20057;-81
2021/12/21 01:52:44;;;;;;;86.13;80.20;;;;;;;-1.41;100.00;101190.63;4989980;28;20054;-79
2021/12/21 01:55:11;;;;;;;81.07;75.57;;;;;;;-1.36;100.00;101194.66;4990154;28;20054;-80
2021/12/21 01:57:38;;;;;;;88.45;82.53;;;;;;;-1.39;100.00;101187.91;4990281;28;20116;-79
2021/12/21 02:00:06;;;;;;;86.35;80.28;;;;;;;-1.22;100.00;101187.44;4990926;28;20490;-81
2021/12/21 02:02:33;;;;;;;81.18;75.57;;;;;;;-0.97;100.00;101186.38;4989591;28;20058;-79
2021/12/21 02:04:59;;;;;;;83.38;77.53;;;;;;;-1.34;100.00;101193.59;4990114;28;20149;-79
2021/12/21 02:07:28;;;;;;;101.85;95.45;;;;;;;-0.28;100.00;101193.94;4990077;28;20054;-80
2021/12/21 02:09:54;;;;;;;89.25;83.00;;;;;;;-1.42;100.00;101195.97;4986966;28;20138;-79
2021/12/21 02:12:22;;;;;;;84.90;79.25;;;;;;;-0.58;100.00;101193.78;4990642;28;20042;-79
2021/12/21 02:14:56;;;;;;;82.47;77.03;;;;;;;-0.06;100.00;101192.19;4989791;28;20053;-80
2021/12/21 02:18:10;;;;;;;79.47;74.03;;;;;;;-0.62;100.00;101200.22;4989887;28;20483;-79
2021/12/21 02:20:43;;;;;;;96.18;90.20;;;;;;;-0.65;100.00;101190.03;4989102;28;20054;-79
2021/12/21 02:23:14;;;;;;;85.97;79.90;;;;;;;-1.39;100.00;101187.91;4988878;28;20138;-80
2021/12/21 02:28:36;;;;;;;92.65;86.45;;;;;;;-1.03;100.00;101188.63;4981121;28;20141;-79
2021/12/21 02:31:03;;;;;;;90.93;84.65;;;;;;;-1.48;100.00;101196.44;4994060;28;20082;-79
2021/12/21 02:33:30;;;;;;;89.47;83.45;;;;;;;-0.74;100.00;101196.78;4994430;28;20566;-80
2021/12/21 02:35:58;;;;;;;98.10;92.05;;;;;;;1.00;100.00;101191.19;4993577;28;20054;-80
2021/12/21 02:38:26;;;;;;;72.50;68.00;;;;;;;0.47;100.00;101193.97;4993948;28;20459;-80
2021/12/21 02:40:53;;;;;;;75.97;70.72;;;;;;;-0.50;100.00;101192.22;4993424;28;20546;-80
2021/12/21 02:43:20;;;;;;;76.35;71.45;;;;;;;0.31;100.00;101200.47;4993162;28;20515;-81
2021/12/21 02:45:47;;;;;;;88.35;82.55;;;;;;;-0.76;100.00;101198.69;4993571;28;20482;-80
2021/12/21 02:48:14;;;;;;;101.20;94.53;;;;;;;-0.04;100.00;101201.56;4994365;28;20105;-79
2021/12/21 02:50:42;;;;;;;86.72;81.45;;;;;;;-0.02;100.00;101196.22;4993391;28;20054;-81
2021/12/21 02:53:11;;;;;;;91.05;85.15;;;;;;;-0.99;100.00;101197.88;4993215;28;20042;-79
2021/12/21 02:55:38;;;;;;;91.63;85.80;;;;;;;-0.53;100.00;101207.31;4994407;28;20414;-81
2021/12/21 02:58:05;;;;;;;97.93;91.85;;;;;;;-0.70;100.00;101204.25;4997254;28;20078;-79
2021/12/21 03:00:35;;;;;;;92.88;87.18;;;;;;;-0.16;100.00;101199.97;5114026;23;20782;-80
2021/12/21 03:03:09;;;;;;;83.47;77.85;;;;;;;-0.67;100.00;101204.97;4946797;28;20139;-79
2021/12/21 03:05:37;;;;;;;86.95;81.35;;;;;;;-0.57;100.00;101203.28;4954369;28;20055;-80
2021/12/21 03:08:11;;;;;;;84.65;79.25;;;;;;;-0.13;100.00;101211.94;4954188;28;20065;-81
2021/12/21 03:10:46;;;;;;;85.72;79.75;;;;;;;-0.42;100.00;101209.91;4954283;28;20061;-80
2021/12/21 03:15:57;;;;;;;87.75;81.78;;;;;;;-0.75;100.00;101229.06;4954122;29;20057;-80
2021/12/21 03:18:24;;;;;;;97.50;90.90;;;;;;;-0.46;100.00;101216.31;4954172;28;20047;-80
2021/12/21 03:20:51;;;;;;;96.57;90.63;;;;;;;-0.25;100.00;101225.03;4954471;28;20081;-80
2021/12/21 03:23:17;;;;;;;90.25;83.75;;;;;;;-0.84;100.00;101214.94;4950907;28;20055;-79
2021/12/21 03:25:45;;;;;;;96.85;90.63;;;;;;;0.69;100.00;101227.78;4956283;28;20058;-84
2021/12/21 03:28:12;;;;;;;91.03;85.57;;;;;;;0.88;100.00;101227.09;4955128;28;20440;-80
2021/12/21 03:30:39;;;;;;;83.07;78.30;;;;;;;0.42;100.00;101228.31;4954805;28;20468;-80
2021/12/21 03:33:06;;;;;;;99.78;93.78;;;;;;;1.54;100.00;101227.47;4953455;28;20138;-80
2021/12/21 03:35:32;;;;;;;78.82;74.00;;;;;;;0.38;100.00;101238.19;4955460;28;20055;-80
2021/12/21 03:37:59;;;;;;;80.93;75.80;;;;;;;0.51;100.00;101231.94;4955755;29;20452;-79
2021/12/21 03:40:31;;;;;;;86.00;80.70;;;;;;;0.07;100.00;101234.66;4953983;28;20051;-80
2021/12/21 03:43:00;;;;;;;86.95;81.03;;;;;;;-0.42;100.00;101232.53;4955369;28;20134;-78
2021/12/21 03:45:28;;;;;;;86.57;81.28;;;;;;;-0.40;100.00;101239.31;4951246;28;20051;-80
2021/12/21 03:47:55;;;;;;;80.35;75.35;;;;;;;0.10;100.00;101228.38;4954991;28;20055;-80
2021/12/21 03:50:22;;;;;;;80.55;75.45;;;;;;;-0.08;100.00;101241.13;4955833;29;20062;-79
2021/12/21 03:52:49;;;;;;;79.22;74.55;;;;;;;-0.62;100.00;101245.38;4954413;28;20106;-80
2021/12/21 03:55:16;;;;;;;83.85;78.30;;;;;;;-0.13;100.00;101241.50;4955206;28;20079;-80
2021/12/21 03:57:42;;;;;;;76.55;71.85;;;;;;;-0.72;100.00;101241.84;4937751;28;20095;-80
2021/12/21 04:00:15;;;;;;;87.32;81.88;;;;;;;0.08;100.00;101244.16;4954043;29;20059;-80
2021/12/21 04:02:42;;;;;;;85.72;80.38;;;;;;;-0.83;100.00;101247.06;4964171;28;20121;-83
2021/12/21 04:05:09;;;;;;;81.25;76.32;;;;;;;-0.65;100.00;101252.63;4974005;28;20050;-79
2021/12/21 04:07:36;;;;;;;85.75;80.07;;;;;;;1.68;100.00;101256.81;4974090;28;20058;-80
2021/12/21 04:10:05;;;;;;;77.10;72.10;;;;;;;0.34;100.00;101267.34;4973799;28;20054;-80
2021/12/21 04:12:31;;;;;;;80.40;75.30;;;;;;;-0.54;100.00;101263.06;4974180;28;20062;-81
2021/12/21 04:14:58;;;;;;;80.97;76.07;;;;;;;0.10;100.00;101267.56;4974232;28;20058;-81
2021/12/21 04:17:26;;;;;;;73.88;69.40;;;;;;;-0.35;100.00;101272.88;4971957;28;20046;-81
2021/12/21 04:19:53;;;;;;;78.18;73.32;;;;;;;-0.78;100.00;101271.84;4971473;28;20046;-83
2021/12/21 04:22:20;;;;;;;83.40;77.68;;;;;;;-0.68;100.00;101269.34;4969274;28;20053;-81
2021/12/21 04:24:47;;;;;;;86.88;81.18;;;;;;;-0.80;100.00;101273.75;4973154;28;20113;-81
2021/12/21 04:27:14;;;;;;;88.20;82.78;;;;;;;-0.59;100.00;101273.84;4974427;28;20542;-81
2021/12/21 04:29:41;;;;;;;90.03;84.65;;;;;;;-0.82;100.00;101280.84;4973815;28;20055;-81
2021/12/21 04:32:08;;;;;;;86.95;81.55;;;;;;;-0.96;100.00;101283.69;4973078;28;20063;-80
2021/12/21 04:34:38;;;;;;;94.88;88.93;;;;;;;-0.01;100.00;101291.91;4968665;28;20047;-79
2021/12/21 04:37:07;;;;;;;80.72;75.57;;;;;;;0.01;100.00;101287.41;4973564;28;20051;-81
2021/12/21 04:39:39;;;;;;;83.00;77.82;;;;;;;-0.72;100.00;101289.63;4973466;28;20129;-81
2021/12/21 04:42:06;;;;;;;75.15;70.20;;;;;;;-0.63;100.00;101288.09;4974461;28;20051;-81
2021/12/21 04:44:33;;;;;;;90.97;85.15;;;;;;;-1.25;100.00;101296.31;4973726;28;20471;-79
2021/12/21 04:47:00;;;;;;;89.43;83.50;;;;;;;-0.15;100.00;101302.63;4973008;28;20113;-80
2021/12/21 04:49:27;;;;;;;91.65;85.97;;;;;;;0.22;100.00;101298.72;4969339;28;20586;-79
2021/12/21 04:51:55;;;;;;;90.13;84.45;;;;;;;0.21;100.00;101307.53;4972685;28;20436;-80
2021/12/21 04:54:22;;;;;;;82.07;77.28;;;;;;;-0.28;100.00;101302.75;4972864;28;20076;-78
2021/12/21 04:56:49;;;;;;;81.50;76.43;;;;;;;-0.79;100.00;101304.09;4973919;28;20392;-79
2021/12/21 04:59:16;;;;;;;81.35;76.35;;;;;;;-0.70;100.00;101305.16;4973265;28;20523;-79
2021/12/21 05:01:42;;;;;;;79.57;74.57;;;;;;;0.60;100.00;101314.84;4972364;28;20093;-79
2021/12/21 05:04:09;;;;;;;77.32;72.53;;;;;;;-0.92;100.00;101319.84;4972742;28;20427;-80
2021/12/21 05:06:36;;;;;;;82.43;77.45;;;;;;;-0.70;100.00;101329.50;4972916;28;20140;-79
2021/12/21 05:09:10;;;;;;;84.35;78.88;;;;;;;-0.41;100.00;101328.19;4973578;28;20537;-80
2021/12/21 05:11:40;;;;;;;75.35;70.65;;;;;;;-0.65;100.00;101329.13;4973323;28;20054;-84
2021/12/21 05:14:08;;;;;;;79.20;74.30;;;;;;;-0.85;100.00;101343.69;4972951;28;20136;-81
2021/12/21 05:16:36;;;;;;;76.85;72.00;;;;;;;0.09;100.00;101334.63;4972700;28;20047;-81
2021/12/21 05:19:02;;;;;;;81.63;76.65;;;;;;;0.22;100.00;101340.53;4973194;28;20050;-79
2021/12/21 05:21:29;;;;;;;75.68;70.97;;;;;;;-0.46;100.00;101341.56;4972915;28;20058;-78
2021/12/21 05:23:56;;;;;;;87.90;82.63;;;;;;;1.88;100.00;101344.16;4972729;28;20141;-81
2021/12/21 05:26:24;;;;;;;78.90;74.15;;;;;;;0.69;100.00;101342.84;4973691;28;20078;-81
2021/12/21 05:28:51;;;;;;;71.50;67.15;;;;;;;-0.77;100.00;101351.75;4972386;28;20125;-80
2021/12/21 05:31:18;;;;;;;72.90;67.95;;;;;;;-0.57;100.00;101345.03;4972283;28;20381;-79
2021/12/21 05:33:45;;;;;;;75.55;70.65;;;;;;;-1.08;100.00;101355.84;4972313;28;20547;-79
2021/12/21 05:36:12;;;;;;;80.22;75.22;;;;;;;-0.67;100.00;101349.28;4971764;28;20141;-79
2021/12/21 05:38:40;;;;;;;81.03;76.00;;;;;;;-0.64;100.00;101356.03;4967178;28;20051;-80
2021/12/21 05:41:12;;;;;;;92.22;86.53;;;;;;;0.34;100.00;101356.19;4968992;28;20474;-80
2021/12/21 05:43:41;;;;;;;83.38;78.05;;;;;;;0.06;100.00;101371.47;4972622;28;20079;-80
2021/12/21 05:46:08;;;;;;;74.57;69.93;;;;;;;0.42;100.00;101372.06;4968128;28;20042;-80
2021/12/21 05:48:34;;;;;;;77.97;73.18;;;;;;;-1.03;100.00;101377.22;4972416;28;20054;-79
2021/12/21 05:51:01;;;;;;;78.57;73.80;;;;;;;-0.32;100.00;101379.69;4972237;28;20400;-79
2021/12/21 05:53:28;;;;;;;109.38;102.68;;;;;;;2.02;100.00;101381.25;4971284;28;20456;-80
2021/12/21 05:55:55;;;;;;;92.80;85.82;;;;;;;2.76;100.00;101377.38;4971421;28;20478;-80
2021/12/21 05:58:21;;;;;;;98.45;90.95;;;;;;;3.07;100.00;101383.25;4972285;28;20471;-80
2021/12/21 06:00:49;;;;;;;100.57;92.07;;;;;;;3.64;100.00;101381.44;4968621;28;20047;-80
2021/12/21 06:03:16;;;;;;;95.00;87.18;;;;;;;3.71;100.00;101386.94;4970987;28;20443;-81
2021/12/21 06:05:43;;;;;;;91.50;83.75;;;;;;;2.86;100.00;101385.22;4971267;28;20106;-80
2021/12/21 06:08:10;;;;;;;90.18;82.70;;;;;;;3.15;100.00;101393.06;4970232;28;20059;-79
2021/12/21 06:10:40;;;;;;;83.00;75.30;;;;;;;3.26;100.00;101397.31;4967374;28;20121;-80
2021/12/21 06:13:25;;;;;;;80.75;73.75;;;;;;;1.14;100.00;101402.75;4968502;28;20050;-80
2021/12/21 06:16:19;;;;;;;84.78;77.38;;;;;;;-0.11;100.00;101406.72;4968202;28;20403;-80
2021/12/21 06:26:58;;;;;;;85.25;77.55;;;;;;;-0.48;100.00;101434.84;4974016;28;20498;-81
2021/12/21 06:29:25;;;;;;;87.30;79.40;;;;;;;-0.35;100.00;101440.78;4972577;28;20183;-80
2021/12/21 06:31:55;;;;;;;91.45;83.05;;;;;;;-0.85;100.00;101439.34;4970012;28;20050;-80
2021/12/21 06:34:22;;;;;;;96.65;87.88;;;;;;;-0.64;100.00;101442.97;4971642;28;20535;-80
2021/12/21 06:36:49;;;;;;;99.00;90.15;;;;;;;-0.67;100.00;101447.59;4970368;28;20054;-81
2021/12/21 06:39:16;;;;;;;90.85;82.40;;;;;;;1.10;100.00;101443.25;4972827;28;20054;-80
2021/12/21 06:41:44;;;;;;;93.50;85.38;;;;;;;0.49;100.00;101443.00;4972273;28;20562;-80
2021/12/21 06:44:14;;;;;;;90.75;82.43;;;;;;;0.45;100.00;101445.00;4972601;28;20042;-80
2021/12/21 06:46:52;;;;;;;88.60;80.60;;;;;;;0.75;100.00;101446.94;4973154;28;20051;-79
2021/12/21 06:52:06;;;;;;;91.05;83.55;;;;;;;1.90;100.00;101458.31;4970216;28;20053;-80
2021/12/21 06:54:33;;;;;;;83.28;75.97;;;;;;;-0.32;100.00;101474.47;4973599;28;20050;-78
2021/12/21 06:57:00;;;;;;;89.10;81.10;;;;;;;0.76;100.00;101459.06;4974092;28;20427;-79
2021/12/21 06:59:27;;;;;;;90.95;83.18;;;;;;;0.46;100.00;101459.75;4973309;28;20468;-79
2021/12/21 07:01:54;;;;;;;86.22;79.05;;;;;;;1.81;100.00;101467.78;4974011;28;20051;-78
2021/12/21 07:04:24;;;;;;;88.00;80.10;;;;;;;0.19;100.00;101463.56;4973732;28;20109;-81
2021/12/21 07:06:52;;;;;;;91.20;83.32;;;;;;;1.19;100.00;101462.59;4973160;28;20467;-79
2021/12/21 07:09:23;;;;;;;93.00;85.20;;;;;;;0.29;100.00;101468.91;4973879;28;20125;-80
2021/12/21 07:11:57;;;;;;;81.85;75.28;;;;;;;0.07;100.00;101464.53;4973219;28;20134;-81
2021/12/21 07:20:10;;;;;;;95.13;86.68;;;;;;;1.50;100.00;101485.25;4920972;29;20063;-79
2021/12/21 07:22:36;;;;;;;100.15;91.80;;;;;;;0.56;100.00;101494.66;4950735;28;20113;-79
2021/12/21 07:25:04;;;;;;;88.57;81.28;;;;;;;0.34;100.00;101489.47;4976227;28;20051;-80
2021/12/21 07:27:31;;;;;;;89.97;82.40;;;;;;;0.38;100.00;101493.50;4972210;28;20567;-79
2021/12/21 07:29:58;;;;;;;90.47;82.65;;;;;;;1.02;100.00;101490.13;4975193;28;20046;-82
2021/12/21 07:32:24;;;;;;;89.93;82.18;;;;;;;0.66;100.00;101485.09;4976205;28;20047;-79
2021/12/21 07:34:51;;;;;;;89.15;81.35;;;;;;;0.31;100.00;101493.16;4976329;28;20050;-80
2021/12/21 07:37:19;;;;;;;86.68;79.05;;;;;;;0.17;100.00;101502.03;4972152;28;20047;-80
2021/12/21 07:39:46;;;;;;;88.93;80.93;;;;;;;-0.15;100.00;101508.91;4976079;28;20484;-79
2021/12/21 07:42:13;;;;;;;91.25;83.35;;;;;;;0.90;100.00;101495.38;4967065;28;20480;-80
2021/12/21 07:44:40;;;;;;;93.47;85.35;;;;;;;0.01;100.00;101511.19;4972761;28;20467;-80
2021/12/21 07:47:07;;;;;;;87.47;79.47;;;;;;;0.27;100.00;101504.78;4975597;28;20133;-79
2021/12/21 07:49:34;;;;;;;86.78;79.35;;;;;;;0.36;100.00;101513.66;4974799;28;20372;-79
2021/12/21 07:52:01;;;;;;;94.75;86.07;;;;;;;1.80;100.00;101513.28;4976079;28;20047;-80
2021/12/21 07:54:29;;;;;;;91.25;83.40;;;;;;;1.07;100.00;101511.50;4975950;28;20054;-81
2021/12/21 07:56:56;;;;;;;90.28;82.35;;;;;;;1.09;100.00;101510.44;4973940;28;20051;-78
2021/12/21 07:59:23;;;;;;;81.80;75.25;;;;;;;0.53;100.00;101526.25;4970578;28;20121;-84
2021/12/21 08:01:51;;;;;;;83.57;76.70;;;;;;;0.31;100.00;101534.97;4970692;28;20058;-79
2021/12/21 08:04:21;;;;;;;90.47;82.57;;;;;;;0.10;100.00;101536.63;4973116;28;20106;-80
2021/12/21 08:06:51;;;;;;;92.43;84.32;;;;;;;0.20;100.00;101532.34;4969722;28;20053;-79
2021/12/21 08:09:18;;;;;;;99.32;90.28;;;;;;;0.58;100.00;101533.75;4970035;28;20121;-83
2021/12/21 08:14:31;;;;;;;102.40;93.65;;;;;;;0.36;100.00;101539.81;4972354;28;20054;-80
2021/12/21 08:16:58;;;;;;;93.53;85.60;;;;;;;0.23;100.00;101548.59;4971489;28;20051;-81
2021/12/21 08:19:25;;;;;;;82.97;76.40;;;;;;;0.56;100.00;101536.47;4970890;28;20057;-78
2021/12/21 08:21:52;;;;;;;88.20;81.30;;;;;;;0.06;100.00;101545.63;4971410;28;20058;-80
2021/12/21 08:24:19;;;;;;;89.68;82.68;;;;;;;0.40;100.00;101552.53;4975719;28;20046;-79
2021/12/21 08:26:47;;;;;;;84.90;77.80;;;;;;;0.33;100.00;101547.88;4974010;28;20051;-81
2021/12/21 08:29:15;;;;;;;91.38;83.35;;;;;;;0.37;100.00;101554.56;4964117;28;20055;-80
2021/12/21 08:31:42;;;;;;;87.65;80.40;;;;;;;1.92;100.00;101555.13;4976891;28;20046;-79
2021/12/21 08:34:10;;;;;;;90.43;83.15;;;;;;;1.60;100.00;101559.47;4977111;28;20113;-77
2021/12/21 08:36:37;;;;;;;91.90;84.22;;;;;;;1.51;100.00;101557.63;4975477;28;20110;-80
2021/12/21 08:39:04;;;;;;;93.00;85.30;;;;;;;1.22;100.00;101565.22;4975340;28;20059;-80
2021/12/21 08:41:33;;;;;;;87.97;80.75;;;;;;;1.97;100.00;101566.06;4974429;28;20054;-80
2021/12/21 08:44:02;;;;;;;91.53;84.15;;;;;;;1.79;100.00;101576.28;4975309;28;20502;-78
2021/12/21 08:46:29;;;;;;;88.40;81.28;;;;;;;0.88;100.00;101577.56;4973854;28;20046;-79
2021/12/21 08:48:56;;;;;;;86.72;79.80;;;;;;;2.50;100.00;101595.56;4975503;28;20121;-79
2021/12/21 08:51:23;;;;;;;90.47;82.90;;;;;;;2.26;100.00;101590.63;4975506;28;20059;-80
2021/12/21 08:53:49;;;;;;;92.60;85.20;;;;;;;2.02;100.00;101593.50;4975513;28;20129;-78
2021/12/21 08:56:16;;;;;;;84.00;77.38;;;;;;;0.90;100.00;101586.09;4975453;28;20055;-80
2021/12/21 08:58:43;;;;;;;88.18;80.97;;;;;;;1.07;100.00;101590.00;4975617;28;20400;-79
2021/12/21 09:01:11;;;;;;;90.57;83.35;;;;;;;1.25;100.00;101587.72;4975183;28;20063;-80
2021/12/21 09:03:38;;;;;;;97.80;89.57;;;;;;;2.02;100.00;101588.28;4975185;28;20483;-79
2021/12/21 09:06:05;;;;;;;95.55;87.82;;;;;;;3.00;100.00;101586.06;4975370;28;20121;-79
2021/12/21 09:08:32;;;;;;;96.53;88.93;;;;;;;1.42;100.00;101591.56;4975119;28;20118;-79
2021/12/21 09:11:03;;;;;;;94.80;87.40;;;;;;;1.47;100.00;101581.56;4975209;28;20055;-80
2021/12/21 09:13:30;;;;;;;93.78;86.18;;;;;;;2.05;100.00;101576.72;4975564;28;20058;-79
2021/12/21 09:15:57;;;;;;;100.47;92.47;;;;;;;2.28;100.00;101586.09;4974978;28;20051;-79
2021/12/21 09:18:25;;;;;;;95.80;88.43;;;;;;;2.33;100.00;101576.97;4974782;28;20058;-79
2021/12/21 09:20:52;;;;;;;97.20;89.43;;;;;;;2.16;100.00;101594.16;4974971;28;20425;-80
2021/12/21 09:23:19;;;;;;;89.30;82.72;;;;;;;3.40;100.00;101599.91;4974895;28;20633;-79
2021/12/21 09:25:46;;;;;;;90.15;83.43;;;;;;;2.25;100.00;101602.06;4974950;28;20183;-79
2021/12/21 09:28:12;;;;;;;89.10;82.35;;;;;;;1.60;100.00;101597.91;4973156;28;20469;-79
2021/12/21 09:30:39;;;;;;;95.80;88.40;;;;;;;1.08;100.00;101595.09;4974595;28;20055;-79
2021/12/21 09:33:06;;;;;;;90.15;83.22;;;;;;;1.91;100.00;101587.53;4974757;28;20125;-78
2021/12/21 09:35:34;;;;;;;92.18;85.05;;;;;;;1.63;100.00;101594.22;4974142;28;20043;-80
2021/12/21 09:38:01;;;;;;;98.20;90.07;;;;;;;2.15;100.00;101593.34;4974645;28;20054;-79
2021/12/21 09:40:30;;;;;;;91.20;84.40;;;;;;;1.69;100.00;101588.47;4974490;28;20487;-79
2021/12/21 09:42:58;;;;;;;97.65;89.50;;;;;;;1.60;100.00;101579.56;4975240;28;20117;-80
2021/12/21 09:45:26;;;;;;;87.88;81.05;;;;;;;1.37;100.00;101578.84;4974469;28;20113;-79
2021/12/21 09:47:52;;;;;;;88.50;81.45;;;;;;;1.18;100.00;101584.75;4974819;28;20109;-79
2021/12/21 09:50:22;;;;;;;90.38;83.25;;;;;;;0.90;100.00;101594.78;4974638;28;20420;-80
2021/12/21 09:52:50;;;;;;;94.13;86.65;;;;;;;0.67;100.00;101603.63;4974526;28;20051;-80
2021/12/21 09:55:18;;;;;;;93.68;85.68;;;;;;;1.12;100.00;101601.78;4965834;28;20105;-79
2021/12/21 09:57:46;;;;;;;100.90;92.50;;;;;;;1.58;100.00;101594.59;4974931;28;20055;-80
2021/12/21 10:00:15;;;;;;;97.47;89.55;;;;;;;0.66;100.00;101607.19;4974402;28;20054;-78
2021/12/21 10:02:42;;;;;;;92.00;84.40;;;;;;;1.02;100.00;101602.63;4974195;28;20569;-80
2021/12/21 10:05:12;;;;;;;94.80;86.90;;;;;;;0.71;100.00;101606.81;4974283;28;20059;-80
2021/12/21 10:07:39;;;;;;;91.18;83.28;;;;;;;1.34;100.00;101597.44;4972275;28;20129;-80
2021/12/21 10:10:11;;;;;;;93.78;86.30;;;;;;;1.39;100.00;101605.72;4974087;28;20054;-79
2021/12/21 10:12:40;;;;;;;98.50;89.93;;;;;;;1.24;100.00;101602.59;4974243;28;20055;-78
2021/12/21 10:15:09;;;;;;;102.13;93.38;;;;;;;0.82;100.00;101612.88;4973991;28;20051;-79
2021/12/21 10:17:37;;;;;;;100.40;90.47;;;;;;;0.59;100.00;101598.16;4972487;28;20117;-80
2021/12/21 10:20:06;;;;;;;106.30;95.88;;;;;;;0.74;100.00;101604.81;4974572;28;20122;-78
2021/12/21 10:22:33;;;;;;;94.53;86.47;;;;;;;0.89;100.00;101605.38;4974180;28;20090;-79
2021/12/21 10:25:00;;;;;;;95.30;87.20;;;;;;;0.20;100.00;101601.09;4974117;28;20055;-79
2021/12/21 10:27:28;;;;;;;92.97;85.07;;;;;;;0.53;100.00;101609.09;4973899;28;20122;-78
2021/12/21 10:29:56;;;;;;;96.80;88.68;;;;;;;0.55;100.00;101612.44;4973622;28;20050;-79
2021/12/21 10:32:25;;;;;;;100.03;91.40;;;;;;;0.19;100.00;101611.69;4974181;28;20051;-79
2021/12/21 10:34:59;;;;;;;100.68;92.28;;;;;;;0.11;100.00;101607.03;4973925;28;20058;-80
2021/12/21 10:37:29;;;;;;;100.18;91.00;;;;;;;0.03;100.00;101621.59;4973752;28;20554;-80
2021/12/21 10:40:11;;;;;;;106.25;95.57;;;;;;;0.16;100.00;101623.19;4974157;28;20055;-79
2021/12/21 10:42:47;;;;;;;99.22;90.18;;;;;;;0.21;100.00;101623.69;4971814;28;20393;-79
2021/12/21 10:45:16;;;;;;;102.03;92.38;;;;;;;0.27;100.00;101619.75;4974012;28;20133;-79
2021/12/21 10:47:46;;;;;;;101.32;92.47;;;;;;;0.16;100.00;101625.81;4973968;28;20125;-79
2021/12/21 10:50:14;;;;;;;96.72;89.03;;;;;;;0.42;100.00;101620.34;4975109;28;20055;-80
2021/12/21 10:52:42;;;;;;;88.50;81.18;;;;;;;0.63;100.00;101616.09;4978010;28;20124;-80
2021/12/21 10:55:09;;;;;;;103.57;94.35;;;;;;;0.80;100.00;101614.78;4977393;28;20057;-79
2021/12/21 10:57:36;;;;;;;100.97;91.93;;;;;;;1.57;100.00;101613.88;4978279;28;20073;-80
2021/12/21 11:00:13;;;;;;;89.35;82.07;;;;;;;1.20;100.00;101621.25;4977664;28;20046;-79
2021/12/21 11:02:40;;;;;;;86.93;80.43;;;;;;;1.28;100.00;101619.69;4977219;28;20069;-80
2021/12/21 11:05:10;;;;;;;98.97;90.82;;;;;;;1.42;100.00;101613.31;4977436;28;20381;-79
2021/12/21 11:07:43;;;;;;;116.60;104.25;;;;;;;1.06;100.00;101624.97;4977853;28;20047;-80
2021/12/21 11:10:14;;;;;;;94.10;85.88;;;;;;;0.76;100.00;101623.84;4976987;28;20058;-79
2021/12/21 11:12:44;;;;;;;97.00;88.85;;;;;;;0.42;100.00;101623.84;4977826;28;20054;-81
2021/12/21 11:15:13;;;;;;;100.88;91.75;;;;;;;0.37;100.00;101631.19;4977485;28;20113;-79
2021/12/21 11:17:41;;;;;;;97.30;89.05;;;;;;;0.38;100.00;101634.63;4976652;28;20046;-78
2021/12/21 11:20:10;;;;;;;101.95;93.25;;;;;;;0.58;100.00;101633.94;4977348;28;20141;-78
2021/12/21 11:22:39;;;;;;;100.13;91.43;;;;;;;0.47;100.00;101627.88;4977283;28;20462;-78
2021/12/21 11:25:08;;;;;;;101.03;92.05;;;;;;;0.22;100.00;101624.50;4976950;28;20117;-78
2021/12/21 11:27:36;;;;;;;102.45;93.22;;;;;;;0.39;100.00;101625.81;4977181;28;20039;-79
2021/12/21 11:30:08;;;;;;;99.63;90.97;;;;;;;0.17;100.00;101632.69;4976901;28;20129;-78
2021/12/21 11:32:39;;;;;;;104.90;95.47;;;;;;;0.16;100.00;101638.03;4976823;28;20476;-80
2021/12/21 11:37:55;;;;;;;96.13;87.47;;;;;;;-0.01;100.00;101639.28;4973988;28;20050;-79
2021/12/21 11:40:24;;;;;;;95.32;86.82;;;;;;;0.09;100.00;101644.66;4976772;28;20091;-79
2021/12/21 11:43:01;;;;;;;104.50;95.22;;;;;;;0.30;100.00;101653.47;4977217;28;20116;-79
2021/12/21 11:45:33;;;;;;;98.35;90.07;;;;;;;0.06;100.00;101650.09;4976461;28;20400;-80
2021/12/21 11:48:08;;;;;;;96.18;88.53;;;;;;;0.03;100.00;101652.94;4976644;28;20419;-78